イヌヴィック の空港の天気 - METARとTAF

イヌヴィック空港 ( CYEV / YEV ) - カナダ ノースウエスト準州イヌヴィック
飛行場実況気象(Metar)
観測時間01/19 19:00 MST (01/20 02:00 UTC)
風向・風速西北西 2m/s
視程10km以上
天気現象弱い雪
全天を覆う雲 雲底高度 2650m
気温-20℃
湿度77%
気圧1014.2hPa
METARCYEV 200200Z 30003KT 10SM -SN OVC087 M20/M23 A2992 RMK AC8 SLP142
過去の天気等 Google飛行場航空写真 Wunderground天気予報

過去48時間のMETAR

飛行場予報(TAF)
発表時間: 1/19 17:38 MST (1/20 00:38 UTC)
予報対象時間: 19日18時 MST ~ 20日6時 MST
風向・風速不定 2m/s
視程10km以上
全天の4割程度の雲 雲底高度 1220m
全天を覆う雲 雲底高度 2440m
19日18時 MST ~ 20日6時 MST に一時的に
視程8050m
天気現象弱い雪
全天を覆う雲 雲底高度 1220m
TAF CYEV 200038Z 2001/2013 VRB03KT P6SM SCT040 OVC080
TEMPO 2001/2013 5SM -SN OVC040 RMK NXT FCST BY 200700Z